createdAt,value
2019-01-13T00:00:14.443Z,3.08
2019-01-13T00:02:42.726Z,1.52
2019-01-13T00:05:11.266Z,1.12
2019-01-13T00:07:39.562Z,1.45
2019-01-13T00:10:07.847Z,1.85
2019-01-13T00:12:36.122Z,1.17
2019-01-13T00:15:07.063Z,2.12
2019-01-13T00:17:35.341Z,1.20
2019-01-13T00:20:05.253Z,1.05
2019-01-13T00:22:33.564Z,2.12
2019-01-13T00:25:01.837Z,1.95
2019-01-13T00:27:30.121Z,2.87
2019-01-13T00:29:58.443Z,2.52
2019-01-13T00:32:26.717Z,1.80
2019-01-13T00:34:54.999Z,2.87
2019-01-13T00:37:23.318Z,2.40
2019-01-13T00:39:51.593Z,1.57
2019-01-13T00:42:19.866Z,3.85
2019-01-13T00:44:48.189Z,2.00
2019-01-13T00:47:16.476Z,5.78
2019-01-13T00:49:44.748Z,5.28
2019-01-13T00:52:13.064Z,5.90
2019-01-13T00:54:41.336Z,2.25
2019-01-13T00:57:09.623Z,5.83
2019-01-13T00:59:37.944Z,3.55
2019-01-13T01:02:06.215Z,4.78
2019-01-13T01:04:34.493Z,2.60
2019-01-13T01:07:02.829Z,6.67
2019-01-13T01:09:31.110Z,5.97
2019-01-13T01:11:59.460Z,4.28
2019-01-13T01:14:27.762Z,2.17
2019-01-13T01:16:56.040Z,3.02
2019-01-13T01:19:24.310Z,2.72
2019-01-13T01:21:52.643Z,5.20
2019-01-13T01:24:20.917Z,10.13
2019-01-13T01:26:49.200Z,5.25
2019-01-13T01:29:17.525Z,4.03
2019-01-13T01:31:45.810Z,3.52
2019-01-13T01:34:14.155Z,4.60
2019-01-13T01:36:42.459Z,3.55
2019-01-13T01:39:10.743Z,2.55
2019-01-13T01:41:39.014Z,8.08
2019-01-13T01:44:07.327Z,8.45
2019-01-13T01:46:35.620Z,5.78
2019-01-13T01:49:03.900Z,5.10
2019-01-13T01:51:32.201Z,9.83
2019-01-13T01:54:00.553Z,5.90
2019-01-13T01:56:28.905Z,5.62
2019-01-13T01:58:57.216Z,3.35
2019-01-13T02:01:25.484Z,7.33
2019-01-13T02:03:53.779Z,3.17
2019-01-13T02:06:22.083Z,4.10
2019-01-13T02:08:50.373Z,4.42
2019-01-13T02:11:18.646Z,4.00
2019-01-13T02:13:46.957Z,5.85
2019-01-13T02:16:15.238Z,2.75
2019-01-13T02:18:43.518Z,4.28
2019-01-13T02:21:11.840Z,5.10
2019-01-13T02:23:40.105Z,3.72
2019-01-13T02:26:08.386Z,11.30
2019-01-13T02:28:36.773Z,3.25
2019-01-13T02:31:05.133Z,1.52
2019-01-13T02:33:33.399Z,3.70
2019-01-13T02:38:36.269Z,5.37
2019-01-13T02:41:04.612Z,4.45
2019-01-13T02:43:32.887Z,4.08
2019-01-13T02:46:01.202Z,5.15
2019-01-13T02:48:29.491Z,2.40
2019-01-13T02:50:57.771Z,4.58
2019-01-13T02:53:26.096Z,1.62
2019-01-13T02:55:54.441Z,2.00
2019-01-13T02:58:22.786Z,4.60
2019-01-13T03:00:57.068Z,1.85
2019-01-13T03:03:21.279Z,5.83
2019-01-13T03:05:49.555Z,2.02
2019-01-13T03:08:17.861Z,2.25
2019-01-13T03:10:46.145Z,1.50
2019-01-13T03:13:14.420Z,2.58
2019-01-13T03:15:42.728Z,3.02
2019-01-13T03:18:11.002Z,3.42
2019-01-13T03:20:39.305Z,1.75
2019-01-13T03:23:07.615Z,1.10
2019-01-13T03:25:35.961Z,1.60
2019-01-13T03:28:04.241Z,3.67
2019-01-13T03:30:32.570Z,4.37
2019-01-13T03:33:00.854Z,1.25
2019-01-13T03:35:29.137Z,4.00
2019-01-13T03:37:57.459Z,2.10
2019-01-13T03:40:25.731Z,14.28
2019-01-13T03:42:54.018Z,2.83
2019-01-13T03:45:22.325Z,4.10
2019-01-13T03:47:50.678Z,3.60
2019-01-13T03:50:20.698Z,4.42
2019-01-13T03:52:53.155Z,5.17
2019-01-13T03:55:21.468Z,2.98
2019-01-13T03:57:49.752Z,2.85
2019-01-13T04:00:19.812Z,3.92
2019-01-13T04:02:48.173Z,3.83
2019-01-13T04:05:16.450Z,4.58
2019-01-13T04:07:44.765Z,6.33
2019-01-13T04:10:14.880Z,6.03
2019-01-13T04:12:43.152Z,3.47
2019-01-13T04:15:17.467Z,3.08
2019-01-13T04:17:45.742Z,7.80
2019-01-13T04:20:14.015Z,3.55
2019-01-13T04:22:42.354Z,6.08
2019-01-13T04:25:10.630Z,2.65
2019-01-13T04:27:38.912Z,2.45
2019-01-13T04:30:12.445Z,2.58
2019-01-13T04:32:40.706Z,3.95
2019-01-13T04:35:09.048Z,4.00
2019-01-13T04:37:37.399Z,2.75
2019-01-13T04:40:10.469Z,5.85
2019-01-13T04:42:38.822Z,1.90
2019-01-13T04:45:08.992Z,5.00
2019-01-13T04:47:37.267Z,4.22
2019-01-13T04:50:11.328Z,3.77
2019-01-13T04:52:39.712Z,4.35
2019-01-13T04:55:08.056Z,3.25
2019-01-13T04:57:36.349Z,3.08
2019-01-13T05:00:07.993Z,2.25
2019-01-13T05:02:36.281Z,3.05
2019-01-13T05:05:05.392Z,3.17
2019-01-13T05:07:33.731Z,3.58
2019-01-13T05:10:02.025Z,2.58
2019-01-13T05:12:30.297Z,2.52
2019-01-13T05:14:58.611Z,3.10
2019-01-13T05:17:26.892Z,3.45
2019-01-13T05:19:55.154Z,2.55
2019-01-13T05:22:23.482Z,3.62
2019-01-13T05:24:51.762Z,4.30
2019-01-13T05:27:20.044Z,3.67
2019-01-13T05:29:48.356Z,2.58
2019-01-13T05:32:16.643Z,3.62
2019-01-13T05:34:44.915Z,4.08
2019-01-13T05:37:13.235Z,4.08
2019-01-13T05:39:41.516Z,4.20
2019-01-13T05:42:09.793Z,3.08
2019-01-13T05:44:38.103Z,7.15
2019-01-13T05:47:06.380Z,7.08
2019-01-13T05:49:34.729Z,5.70
2019-01-13T05:52:03.205Z,3.90
2019-01-13T05:54:31.479Z,3.05
2019-01-13T05:56:59.757Z,3.37
2019-01-13T05:59:28.132Z,6.35
2019-01-13T06:01:56.479Z,4.60
2019-01-13T06:04:24.763Z,5.00
2019-01-13T06:06:53.085Z,7.78
2019-01-13T06:09:21.368Z,5.95
2019-01-13T06:11:49.717Z,2.87
2019-01-13T06:14:18.044Z,8.68
2019-01-13T06:16:46.322Z,8.93
2019-01-13T06:19:14.598Z,4.15
2019-01-13T06:21:42.907Z,5.50
2019-01-13T06:24:11.197Z,4.53
2019-01-13T06:26:39.489Z,4.65
2019-01-13T06:29:07.804Z,5.87
2019-01-13T06:31:36.077Z,7.33
2019-01-13T06:34:04.428Z,7.97
2019-01-13T06:36:32.751Z,6.28
2019-01-13T06:39:01.043Z,4.20
2019-01-13T06:41:29.320Z,5.67
2019-01-13T06:43:57.641Z,5.05
2019-01-13T06:46:25.988Z,4.78
2019-01-13T06:48:55.088Z,6.30
2019-01-13T06:51:23.336Z,8.40
2019-01-13T06:53:51.620Z,5.83
2019-01-13T06:56:19.907Z,8.03
2019-01-13T06:58:48.209Z,6.25
2019-01-13T07:01:16.491Z,7.17
2019-01-13T07:03:44.771Z,8.18
2019-01-13T07:06:13.086Z,7.45
2019-01-13T07:08:41.366Z,9.03
2019-01-13T07:11:09.662Z,9.15
2019-01-13T07:13:37.972Z,8.00
2019-01-13T07:16:06.268Z,8.45
2019-01-13T07:18:34.541Z,7.80
2019-01-13T07:21:02.861Z,4.13
2019-01-13T07:23:31.142Z,9.68
2019-01-13T07:25:59.413Z,5.67
2019-01-13T07:28:27.735Z,10.58
2019-01-13T07:30:56.005Z,6.40
2019-01-13T07:33:24.283Z,5.47
2019-01-13T07:35:52.586Z,5.07
2019-01-13T07:38:20.875Z,4.85
2019-01-13T07:40:49.176Z,11.50
2019-01-13T07:43:17.485Z,6.30
2019-01-13T07:45:45.775Z,4.12
2019-01-13T07:48:14.060Z,3.52
2019-01-13T07:50:42.442Z,3.85
2019-01-13T07:53:10.813Z,3.05
2019-01-13T07:55:39.162Z,5.30
2019-01-13T07:58:07.525Z,23.18
2019-01-13T08:00:35.820Z,16.77
2019-01-13T08:03:04.176Z,20.88
2019-01-13T08:05:33.414Z,29.32
2019-01-13T08:08:01.711Z,27.67
2019-01-13T08:10:30.003Z,15.18
2019-01-13T08:12:58.337Z,29.10
2019-01-13T08:15:26.622Z,31.50
2019-01-13T08:17:54.914Z,22.05
2019-01-13T08:20:26.240Z,39.48
2019-01-13T08:22:54.529Z,30.55
2019-01-13T08:25:22.989Z,55.20
2019-01-13T08:27:51.303Z,28.73
2019-01-13T08:30:20.728Z,40.40
2019-01-13T08:32:49.017Z,20.10
2019-01-13T08:35:17.340Z,22.35
2019-01-13T08:37:45.635Z,27.40
2019-01-13T08:40:15.956Z,27.17
2019-01-13T08:42:44.281Z,31.00
2019-01-13T08:45:12.565Z,25.10
2019-01-13T08:47:40.853Z,25.30
2019-01-13T08:50:19.541Z,26.50
2019-01-13T08:52:47.841Z,22.22
2019-01-13T08:55:16.440Z,22.73
2019-01-13T08:57:44.910Z,22.62
2019-01-13T09:00:19.329Z,19.35
2019-01-13T09:02:47.834Z,24.87
2019-01-13T09:05:16.416Z,20.02
2019-01-13T09:07:44.910Z,50.38
2019-01-13T09:10:18.411Z,24.67
2019-01-13T09:12:47.090Z,25.17
2019-01-13T09:15:20.462Z,36.93
2019-01-13T09:17:48.810Z,46.80
2019-01-13T09:20:26.861Z,31.57
2019-01-13T09:22:55.643Z,33.97
2019-01-13T09:25:23.925Z,25.62
2019-01-13T09:27:52.456Z,25.62
2019-01-13T09:30:25.536Z,25.62
2019-01-13T09:32:54.025Z,27.80
2019-01-13T09:35:22.531Z,29.90
2019-01-13T09:37:50.814Z,23.97
2019-01-13T09:40:24.049Z,20.37
2019-01-13T09:42:52.507Z,21.70
2019-01-13T09:45:21.200Z,23.27
2019-01-13T09:47:49.481Z,29.60
2019-01-13T09:50:23.249Z,48.77
2019-01-13T09:52:51.606Z,28.17
2019-01-13T09:55:21.495Z,26.77
2019-01-13T09:57:49.893Z,27.73
2019-01-13T10:00:21.144Z,20.00
2019-01-13T10:02:49.639Z,18.30
2019-01-13T10:05:17.952Z,50.10
2019-01-13T10:07:46.442Z,24.47
2019-01-13T10:10:14.926Z,22.87
2019-01-13T10:12:43.317Z,29.17
2019-01-13T10:15:22.746Z,44.83
2019-01-13T10:17:51.289Z,22.40
2019-01-13T10:20:19.776Z,34.03
2019-01-13T10:22:48.125Z,29.53
2019-01-13T10:25:16.701Z,28.30
2019-01-13T10:27:45.190Z,30.57
2019-01-13T10:30:22.753Z,33.97
2019-01-13T10:32:54.445Z,35.40
2019-01-13T10:35:21.577Z,23.37
2019-01-13T10:37:51.513Z,34.33
2019-01-13T10:40:25.077Z,37.23
2019-01-13T10:42:53.571Z,25.17
2019-01-13T10:45:22.094Z,38.73
2019-01-13T10:47:50.584Z,41.53
2019-01-13T10:50:21.831Z,27.60
2019-01-13T10:52:50.347Z,32.70
2019-01-13T10:55:18.774Z,41.50
2019-01-13T10:57:47.258Z,38.40
2019-01-13T11:00:21.511Z,32.30
2019-01-13T11:02:50.041Z,35.47
2019-01-13T11:05:18.494Z,33.27
2019-01-13T11:07:47.037Z,48.07
2019-01-13T11:10:17.020Z,24.07
2019-01-13T11:12:45.518Z,46.30
2019-01-13T11:15:21.427Z,27.83
2019-01-13T11:17:46.356Z,32.30
2019-01-13T11:20:17.546Z,30.37
2019-01-13T11:22:46.005Z,30.63
2019-01-13T11:25:14.803Z,34.50
2019-01-13T11:27:43.304Z,48.80
2019-01-13T11:30:15.029Z,34.27
2019-01-13T11:32:43.520Z,47.57
2019-01-13T11:35:13.102Z,31.77
2019-01-13T11:37:41.629Z,32.67
2019-01-13T11:40:13.081Z,33.50
2019-01-13T11:42:41.572Z,65.57
2019-01-13T11:45:10.624Z,45.47
2019-01-13T11:47:39.121Z,38.37
2019-01-13T11:50:12.708Z,43.13
2019-01-13T11:52:41.249Z,33.57
2019-01-13T11:55:11.850Z,31.73
2019-01-13T11:57:40.342Z,41.53
2019-01-13T12:00:11.978Z,22.10
2019-01-13T12:02:40.467Z,29.73
2019-01-13T12:05:08.956Z,18.73
2019-01-13T12:07:37.483Z,24.23
2019-01-13T12:10:09.098Z,35.10
2019-01-13T12:12:37.587Z,56.07
2019-01-13T12:15:09.242Z,96.97
2019-01-13T12:17:37.740Z,22.50
2019-01-13T12:20:09.343Z,18.83
2019-01-13T12:22:37.882Z,23.03
2019-01-13T12:25:09.279Z,28.93
2019-01-13T12:27:37.767Z,22.90
2019-01-13T12:30:12.594Z,20.97
2019-01-13T12:32:41.081Z,20.23
2019-01-13T12:35:09.567Z,17.17
2019-01-13T12:37:38.097Z,21.30
2019-01-13T12:40:12.696Z,16.50
2019-01-13T12:42:41.198Z,25.13
2019-01-13T12:45:12.518Z,21.80
2019-01-13T12:47:41.007Z,18.33
2019-01-13T12:50:12.656Z,14.93
2019-01-13T12:52:41.179Z,17.43
2019-01-13T12:55:09.680Z,21.77
2019-01-13T12:57:38.172Z,16.77
2019-01-13T13:00:10.161Z,21.13
2019-01-13T13:02:38.651Z,19.23
2019-01-13T13:05:09.937Z,18.30
2019-01-13T13:07:38.493Z,17.77
2019-01-13T13:10:15.854Z,26.00
2019-01-13T13:12:44.373Z,23.30
2019-01-13T13:15:12.864Z,19.50
2019-01-13T13:17:41.356Z,30.43
2019-01-13T13:20:16.284Z,18.20
2019-01-13T13:22:44.789Z,22.13
2019-01-13T13:25:13.777Z,39.50
2019-01-13T13:27:42.311Z,31.00
2019-01-13T13:30:22.184Z,30.83
2019-01-13T13:32:50.741Z,27.37
2019-01-13T13:35:19.438Z,25.97
2019-01-13T13:37:48.029Z,24.37
2019-01-13T13:40:19.145Z,33.90
2019-01-13T13:42:49.185Z,32.67
2019-01-13T13:45:17.685Z,29.47
2019-01-13T13:47:46.211Z,28.43
2019-01-13T13:50:17.097Z,34.50
2019-01-13T13:52:45.594Z,37.13
2019-01-13T13:55:14.113Z,22.97
2019-01-13T13:57:42.595Z,23.20
2019-01-13T14:00:25.888Z,27.63
2019-01-13T14:02:54.372Z,25.77
2019-01-13T14:05:22.859Z,18.13
2019-01-13T14:07:52.978Z,23.17
2019-01-13T14:10:26.848Z,32.93
2019-01-13T14:12:55.344Z,35.00
2019-01-13T14:15:23.872Z,36.90
2019-01-13T14:17:52.351Z,35.67
2019-01-13T14:20:20.846Z,30.63
2019-01-13T14:22:49.366Z,32.23
2019-01-13T14:25:17.851Z,41.43
2019-01-13T14:27:46.352Z,32.93
2019-01-13T14:30:19.556Z,50.33
2019-01-13T14:32:48.042Z,29.00
2019-01-13T14:35:16.534Z,34.10
2019-01-13T14:37:45.048Z,29.03
2019-01-13T14:40:20.296Z,27.77
2019-01-13T14:42:48.906Z,21.73
2019-01-13T14:45:19.262Z,27.03
2019-01-13T14:47:47.743Z,27.13
2019-01-13T14:50:18.240Z,22.80
2019-01-13T14:52:47.028Z,24.40
2019-01-13T14:55:15.634Z,27.57
2019-01-13T14:57:45.700Z,22.87
2019-01-13T15:00:19.256Z,29.10
2019-01-13T15:02:47.739Z,35.33
2019-01-13T15:05:16.240Z,41.70
2019-01-13T15:07:45.367Z,53.00
2019-01-13T15:10:21.550Z,40.53
2019-01-13T15:12:50.043Z,41.30
2019-01-13T15:15:18.586Z,48.73
2019-01-13T15:17:47.095Z,42.03
2019-01-13T15:20:19.964Z,36.50
2019-01-13T15:22:48.708Z,49.17
2019-01-13T15:25:20.068Z,39.67
2019-01-13T15:27:48.558Z,42.67
2019-01-13T15:30:20.189Z,41.67
2019-01-13T15:32:48.667Z,41.80
2019-01-13T15:35:17.140Z,37.13
2019-01-13T15:37:45.661Z,41.10
2019-01-13T15:40:16.713Z,36.43
2019-01-13T15:42:45.200Z,46.60
2019-01-13T15:45:14.929Z,52.00
2019-01-13T15:47:43.421Z,48.37
2019-01-13T15:50:14.875Z,44.77
2019-01-13T15:52:43.523Z,49.17
2019-01-13T15:55:12.011Z,44.10
2019-01-13T15:57:40.502Z,43.90
2019-01-13T16:00:17.821Z,52.87
2019-01-13T16:02:46.307Z,41.70
2019-01-13T16:05:14.796Z,43.47
2019-01-13T16:07:43.320Z,42.63
2019-01-13T16:10:14.419Z,38.93
2019-01-13T16:12:44.032Z,48.70
2019-01-13T16:15:13.248Z,46.37
2019-01-13T16:17:41.743Z,45.70
2019-01-13T16:20:24.625Z,53.30
2019-01-13T16:22:53.120Z,44.43
2019-01-13T16:25:21.621Z,38.17
2019-01-13T16:27:50.160Z,45.20
2019-01-13T16:30:21.317Z,36.73
2019-01-13T16:32:49.818Z,39.00
2019-01-13T16:35:18.365Z,57.57
2019-01-13T16:37:46.886Z,52.47
2019-01-13T16:40:20.253Z,53.90
2019-01-13T16:42:48.795Z,50.47
2019-01-13T16:45:17.985Z,50.20
2019-01-13T16:47:47.184Z,45.47
2019-01-13T16:50:20.458Z,38.63
2019-01-13T16:52:50.649Z,45.33
2019-01-13T16:55:19.139Z,41.90
2019-01-13T16:57:50.378Z,41.50
2019-01-13T17:00:27.206Z,39.33
2019-01-13T17:02:55.848Z,45.07
2019-01-13T17:05:24.735Z,43.40
2019-01-13T17:07:53.258Z,46.90
2019-01-13T17:10:23.311Z,45.77
2019-01-13T17:12:53.325Z,42.63
2019-01-13T17:15:24.218Z,42.13
2019-01-13T17:17:53.234Z,43.23
2019-01-13T17:20:23.187Z,41.57
2019-01-13T17:22:51.683Z,124.60
2019-01-13T17:25:22.123Z,111.30
2019-01-13T17:27:50.646Z,122.97
2019-01-13T17:30:25.262Z,107.37
2019-01-13T17:32:53.808Z,82.40
2019-01-13T17:35:22.298Z,85.67
2019-01-13T17:37:51.086Z,58.37
2019-01-13T17:40:21.518Z,76.00
2019-01-13T17:42:50.024Z,26.77
2019-01-13T17:45:21.071Z,21.20
2019-01-13T17:47:49.794Z,20.30
2019-01-13T17:50:20.085Z,18.07
2019-01-13T17:52:48.577Z,17.90
2019-01-13T17:55:18.909Z,18.33
2019-01-13T17:57:47.401Z,21.27
2019-01-13T18:00:28.155Z,16.17
2019-01-13T18:02:59.343Z,17.33
2019-01-13T18:05:27.839Z,18.30
2019-01-13T18:07:56.438Z,12.73
2019-01-13T18:10:24.923Z,13.40
2019-01-13T18:12:53.406Z,7.60
2019-01-13T18:15:21.932Z,10.47
2019-01-13T18:17:50.420Z,7.20
2019-01-13T18:20:22.022Z,8.30
2019-01-13T18:22:50.548Z,8.07
2019-01-13T18:25:19.027Z,10.77
2019-01-13T18:27:47.501Z,10.87
2019-01-13T18:30:18.779Z,5.93
2019-01-13T18:32:47.267Z,13.77
2019-01-13T18:35:17.547Z,7.40
2019-01-13T18:37:46.069Z,8.87
2019-01-13T18:40:17.117Z,7.73
2019-01-13T18:42:45.602Z,20.07
2019-01-13T18:45:14.332Z,31.67
2019-01-13T18:47:42.823Z,13.30
2019-01-13T18:50:20.399Z,18.83
2019-01-13T18:52:55.032Z,17.83
2019-01-13T18:55:23.518Z,10.70
2019-01-13T18:57:52.039Z,25.60
2019-01-13T19:00:24.599Z,31.53
2019-01-13T19:02:53.090Z,17.13
2019-01-13T19:05:24.698Z,20.03
2019-01-13T19:07:53.186Z,23.63
2019-01-13T19:10:36.815Z,15.53
2019-01-13T19:13:11.361Z,18.43
2019-01-13T19:15:39.859Z,34.23
2019-01-13T19:18:08.404Z,43.17
2019-01-13T19:20:36.884Z,29.40
2019-01-13T19:23:05.572Z,32.53
2019-01-13T19:25:34.113Z,52.43
2019-01-13T19:28:05.623Z,44.70
2019-01-13T19:30:34.112Z,24.17
2019-01-13T19:33:02.671Z,37.07
2019-01-13T19:35:34.304Z,29.43
2019-01-13T19:38:02.843Z,13.00
2019-01-13T19:40:31.392Z,22.63
2019-01-13T19:42:59.880Z,18.40
2019-01-13T19:45:28.405Z,23.37
2019-01-13T19:47:59.947Z,19.13
2019-01-13T19:50:28.438Z,17.27
2019-01-13T19:52:58.488Z,31.80
2019-01-13T19:55:27.025Z,18.20
2019-01-13T19:57:55.513Z,15.43
2019-01-13T20:00:29.931Z,9.53
2019-01-13T20:02:58.440Z,9.20
2019-01-13T20:05:26.935Z,16.43
2019-01-13T20:07:56.296Z,11.07
2019-01-13T20:10:24.814Z,8.57
2019-01-13T20:12:53.303Z,6.93
2019-01-13T20:15:22.303Z,17.53
2019-01-13T20:17:50.843Z,15.33
2019-01-13T20:20:20.431Z,17.43
2019-01-13T20:22:49.033Z,7.90
2019-01-13T20:25:18.698Z,10.17
2019-01-13T20:27:47.184Z,9.30
2019-01-13T20:30:21.013Z,11.03
2019-01-13T20:32:49.566Z,12.27
2019-01-13T20:35:19.264Z,17.23
2019-01-13T20:37:48.043Z,24.37
2019-01-13T20:40:20.045Z,15.93
2019-01-13T20:42:48.544Z,30.27
2019-01-13T20:45:25.758Z,38.23
2019-01-13T20:47:54.241Z,28.90
2019-01-13T20:50:22.743Z,25.73
2019-01-13T20:52:51.276Z,36.87
2019-01-13T20:55:19.783Z,25.40
2019-01-13T20:57:48.279Z,40.60
2019-01-13T21:00:22.349Z,30.87
2019-01-13T21:02:50.942Z,26.13
2019-01-13T21:05:26.287Z,19.80
2019-01-13T21:07:49.682Z,24.70
2019-01-13T21:10:19.533Z,28.70
2019-01-13T21:12:48.031Z,44.15
2019-01-13T21:15:19.436Z,32.77
2019-01-13T21:17:47.930Z,35.60
2019-01-13T21:20:16.427Z,21.20
2019-01-13T21:22:44.957Z,18.53
2019-01-13T21:25:16.217Z,24.53
2019-01-13T21:27:45.212Z,30.63
2019-01-13T21:30:27.478Z,30.23
2019-01-13T21:32:55.995Z,36.30
2019-01-13T21:35:24.403Z,42.37
2019-01-13T21:37:52.940Z,32.97
2019-01-13T21:40:21.294Z,44.43
2019-01-13T21:42:49.578Z,33.70
2019-01-13T21:45:19.820Z,30.13
2019-01-13T21:47:48.311Z,35.03
2019-01-13T21:50:19.368Z,37.83
2019-01-13T21:52:47.900Z,30.00
2019-01-13T21:55:17.827Z,39.93
2019-01-13T21:57:46.323Z,34.63
2019-01-13T22:00:19.996Z,29.30
2019-01-13T22:02:48.491Z,31.20
2019-01-13T22:05:16.972Z,36.43
2019-01-13T22:07:45.454Z,45.47
2019-01-13T22:10:16.151Z,27.53
2019-01-13T22:12:45.356Z,32.78
2019-01-13T22:15:18.184Z,29.67
2019-01-13T22:17:46.541Z,33.70
2019-01-13T22:20:19.302Z,43.28
2019-01-13T22:22:47.797Z,30.10
2019-01-13T22:25:16.238Z,32.38
2019-01-13T22:27:44.523Z,35.73
2019-01-13T22:30:20.956Z,30.55
2019-01-13T22:32:49.247Z,27.35
2019-01-13T22:35:17.537Z,26.07
2019-01-13T22:37:45.934Z,31.42
2019-01-13T22:40:15.766Z,34.58
2019-01-13T22:42:44.060Z,31.95
2019-01-13T22:45:17.331Z,34.63
2019-01-13T22:47:45.863Z,29.77
2019-01-13T22:50:15.471Z,21.02
2019-01-13T22:52:43.797Z,33.13
2019-01-13T22:55:12.116Z,23.65
2019-01-13T22:57:40.399Z,27.82
2019-01-13T23:00:34.348Z,29.15
2019-01-13T23:03:02.812Z,24.50
2019-01-13T23:05:31.178Z,32.63
2019-01-13T23:07:59.503Z,24.12
2019-01-13T23:10:27.911Z,24.98
2019-01-13T23:12:56.148Z,25.12
2019-01-13T23:15:25.323Z,23.20
2019-01-13T23:17:53.608Z,31.10
2019-01-13T23:20:21.891Z,21.77
2019-01-13T23:22:50.225Z,23.87
2019-01-13T23:25:18.503Z,24.65
2019-01-13T23:27:46.867Z,31.07
2019-01-13T23:30:15.191Z,36.05
2019-01-13T23:32:43.473Z,30.85
2019-01-13T23:35:11.770Z,22.22
2019-01-13T23:37:40.164Z,30.43
2019-01-13T23:40:08.905Z,22.42
2019-01-13T23:42:37.262Z,25.92
2019-01-13T23:45:07.890Z,39.53
2019-01-13T23:47:36.173Z,34.05
2019-01-13T23:50:05.990Z,32.48
2019-01-13T23:52:34.307Z,40.52
2019-01-13T23:55:02.664Z,26.55
2019-01-13T23:57:30.946Z,27.00
2019-01-13T23:59:59.262Z,29.20
